Dades meteomassalio
 
Diari Summary for Febrer 19, 2018 Units:  English    Metric   Both
« Previous Day
Next Day »
Diari Semanal Mensual Anual Personalitzat
  Actual: Maxima: Minima: Mijana:
Temperatura: 9.4 °F TemperatureC °F 7.2 °F 8.3 °F
Rosada: 5.4 °F DewpointC °F 3.7 °F 4.6 °F
Humitat: 76 % Humidity % 75 % 76 %
Velocitat del vent: 18.5 mph WindSpeedKMH mph 9.3 mph 17.4 mph
Racha vent: 18.5 mph WindSpeedGustKMH mph - -
Vent:NW - - NW
Pressio: 1021.2 in PressurehPa in 1020.5 in -
Pluja: 0.0 in      
Historical Graphs
 
 
Tabular Data for Febrer 19, 2018
Time Temperature Dew Point Pressure Wind Wind Speed Wind Gust Humidity Rainfall Rate (Hourly) solar Conditions
TemperatureC °F DewpointC °F PressurehPa in Calm     Humidity % HourlyPrecipMM in SolarRadiationWatts/m^2 W/m2 Conditions
00:01 8.3 °F 4.6 °F 1022.6 in NW 16.7 mph 16.7 mph 77 % 0.0 in 0.0 W/m2 CLR
00:06 8.3 °F 4.6 °F 1022.6 in NW 18.5 mph 18.5 mph 77 % 0.0 in 0.0 W/m2 CLR
00:11 8.3 °F 4.3 °F 1022.6 in WNW 20.4 mph 20.4 mph 76 % 0.0 in 0.0 W/m2 CLR
00:16 8.3 °F 4.6 °F 1022.6 in NW 16.7 mph 16.7 mph 77 % 0.0 in 0.0 W/m2 CLR
00:21 8.9 °F 5.1 °F 1022.6 in NW 18.5 mph 18.5 mph 77 % 0.0 in 0.0 W/m2 CLR
00:26 8.9 °F 5.1 °F 1022.6 in WNW 13.0 mph 13.0 mph 77 % 0.0 in 0.0 W/m2 CLR
00:31 8.3 °F 4.6 °F 1022.6 in NW 20.4 mph 20.4 mph 77 % 0.0 in 0.0 W/m2 CLR
00:36 8.3 °F 4.3 °F 1022.6 in WNW 18.5 mph 18.5 mph 76 % 0.0 in 0.0 W/m2 CLR
00:41 8.3 °F 4.3 °F 1022.6 in NW 18.5 mph 18.5 mph 76 % 0.0 in 0.0 W/m2 CLR
00:46 8.3 °F 4.3 °F 1022.6 in WNW 20.9 mph 20.9 mph 76 % 0.0 in 0.0 W/m2 CLR
00:51 8.9 °F 4.9 °F 1022.2 in NW 18.5 mph 18.5 mph 76 % 0.0 in 0.0 W/m2 CLR
00:56 8.3 °F 4.3 °F 1022.2 in NW 19.3 mph 19.3 mph 76 % 0.0 in 0.0 W/m2 CLR
01:01 8.3 °F 4.3 °F 1022.2 in WNW 18.5 mph 18.5 mph 76 % 0.0 in 0.0 W/m2 CLR
01:06 8.3 °F 4.3 °F 1022.2 in NW 18.5 mph 18.5 mph 76 % 0.0 in 0.0 W/m2 CLR
01:11 8.3 °F 4.3 °F 1022.2 in West 20.4 mph 20.4 mph 76 % 0.0 in 0.0 W/m2 CLR
01:16 8.3 °F 4.3 °F 1022.2 in NW 18.5 mph 18.5 mph 76 % 0.0 in 0.0 W/m2 CLR
01:21 8.9 °F 4.9 °F 1022.2 in NW 16.1 mph 16.1 mph 76 % 0.0 in 0.0 W/m2 CLR
01:26 8.9 °F 4.9 °F 1022.2 in WNW 19.3 mph 19.3 mph 76 % 0.0 in 0.0 W/m2 CLR
01:31 8.9 °F 4.9 °F 1022.2 in NW 18.5 mph 18.5 mph 76 % 0.0 in 0.0 W/m2 CLR
01:36 8.9 °F 4.9 °F 1022.2 in NW 17.7 mph 17.7 mph 76 % 0.0 in 0.0 W/m2 CLR
01:41 8.9 °F 4.9 °F 1022.2 in NW 18.5 mph 18.5 mph 76 % 0.0 in 0.0 W/m2 CLR
01:46 8.9 °F 4.9 °F 1021.9 in WNW 16.7 mph 16.7 mph 76 % 0.0 in 0.0 W/m2 CLR
01:51 8.9 °F 4.7 °F 1021.9 in WNW 18.5 mph 18.5 mph 75 % 0.0 in 0.0 W/m2 CLR
01:56 8.9 °F 4.9 °F 1021.9 in NW 18.5 mph 18.5 mph 76 % 0.0 in 0.0 W/m2 CLR
02:01 8.9 °F 4.9 °F 1021.9 in NW 20.4 mph 20.4 mph 76 % 0.0 in 0.0 W/m2 CLR
02:06 8.9 °F 4.9 °F 1021.9 in NW 18.5 mph 18.5 mph 76 % 0.0 in 0.0 W/m2 CLR
02:11 8.9 °F 4.9 °F 1021.6 in NW 18.5 mph 18.5 mph 76 % 0.0 in 0.0 W/m2 CLR
02:16 8.9 °F 4.9 °F 1021.6 in NW 22.2 mph 22.2 mph 76 % 0.0 in 0.0 W/m2 CLR
02:21 8.9 °F 4.9 °F 1021.6 in NW 22.2 mph 22.2 mph 76 % 0.0 in 0.0 W/m2 CLR
02:26 8.9 °F 4.9 °F 1021.6 in NNW 24.1 mph 24.1 mph 76 % 0.0 in 0.0 W/m2 CLR
02:31 8.9 °F 4.9 °F 1021.6 in WNW 20.9 mph 20.9 mph 76 % 0.0 in 0.0 W/m2 CLR
02:37 8.9 °F 4.9 °F 1021.6 in NW 20.4 mph 20.4 mph 76 % 0.0 in 0.0 W/m2 CLR
02:42 8.9 °F 4.9 °F 1021.6 in NW 18.5 mph 18.5 mph 76 % 0.0 in 0.0 W/m2 CLR
02:47 8.9 °F 4.9 °F 1021.6 in NNW 16.7 mph 16.7 mph 76 % 0.0 in 0.0 W/m2 CLR
02:52 8.9 °F 5.1 °F 1021.6 in NW 18.5 mph 18.5 mph 77 % 0.0 in 0.0 W/m2 CLR
02:57 8.9 °F 5.1 °F 1021.6 in NW 18.5 mph 18.5 mph 77 % 0.0 in 0.0 W/m2 CLR
03:02 8.9 °F 5.1 °F 1021.6 in NW 22.2 mph 22.2 mph 77 % 0.0 in 0.0 W/m2 CLR
03:07 8.9 °F 5.1 °F 1021.6 in NW 20.4 mph 20.4 mph 77 % 0.0 in 0.0 W/m2 CLR
03:12 8.9 °F 5.1 °F 1021.6 in NNW 18.5 mph 18.5 mph 77 % 0.0 in 0.0 W/m2 CLR
03:17 8.9 °F 5.1 °F 1021.6 in NW 24.1 mph 24.1 mph 77 % 0.0 in 0.0 W/m2 CLR
03:22 8.9 °F 5.1 °F 1021.2 in WNW 20.4 mph 20.4 mph 77 % 0.0 in 0.0 W/m2 CLR
03:27 8.9 °F 5.1 °F 1021.2 in NW 24.1 mph 24.1 mph 77 % 0.0 in 0.0 W/m2 CLR
03:32 8.9 °F 5.1 °F 1021.2 in NW 22.2 mph 22.2 mph 77 % 0.0 in 0.0 W/m2 CLR
03:37 8.9 °F 5.1 °F 1021.2 in NW 16.1 mph 16.1 mph 77 % 0.0 in 0.0 W/m2 CLR
03:42 8.9 °F 5.1 °F 1021.2 in NW 18.5 mph 18.5 mph 77 % 0.0 in 0.0 W/m2 CLR
03:47 8.9 °F 5.1 °F 1021.2 in NW 16.7 mph 16.7 mph 77 % 0.0 in 0.0 W/m2 CLR
03:52 8.9 °F 5.1 °F 1020.9 in WNW 24.1 mph 24.1 mph 77 % 0.0 in 0.0 W/m2 CLR
03:57 8.9 °F 5.1 °F 1020.9 in WNW 20.4 mph 20.4 mph 77 % 0.0 in 0.0 W/m2 CLR
04:02 8.3 °F 4.6 °F 1020.9 in NW 22.2 mph 22.2 mph 77 % 0.0 in 0.0 W/m2 CLR
04:07 8.3 °F 4.6 °F 1020.9 in NW 25.9 mph 25.9 mph 77 % 0.0 in 0.0 W/m2 CLR
04:12 8.3 °F 4.6 °F 1020.9 in NW 24.1 mph 24.1 mph 77 % 0.0 in 0.0 W/m2 CLR
04:17 8.3 °F 4.6 °F 1020.9 in NW 18.5 mph 18.5 mph 77 % 0.0 in 0.0 W/m2 CLR
04:22 8.3 °F 4.6 °F 1020.9 in NW 20.9 mph 20.9 mph 77 % 0.0 in 0.0 W/m2 CLR
04:27 8.3 °F 4.7 °F 1020.5 in WNW 24.1 mph 24.1 mph 78 % 0.0 in 0.0 W/m2 CLR
04:32 8.3 °F 4.7 °F 1020.5 in NNW 27.8 mph 27.8 mph 78 % 0.0 in 0.0 W/m2 CLR
04:37 8.3 °F 4.7 °F 1020.5 in NW 16.7 mph 16.7 mph 78 % 0.0 in 0.0 W/m2 CLR
04:42 8.3 °F 4.7 °F 1020.5 in NW 18.5 mph 18.5 mph 78 % 0.0 in 0.0 W/m2 CLR
04:47 7.8 °F 4.2 °F 1020.5 in NW 18.5 mph 18.5 mph 78 % 0.0 in 0.0 W/m2 CLR
04:52 7.8 °F 4.2 °F 1020.5 in WNW 14.8 mph 14.8 mph 78 % 0.0 in 0.0 W/m2 CLR
04:57 7.8 °F 4.2 °F 1020.9 in WNW 13.0 mph 13.0 mph 78 % 0.0 in 0.0 W/m2 CLR
05:02 7.8 °F 4.2 °F 1020.9 in WNW 17.7 mph 17.7 mph 78 % 0.0 in 0.0 W/m2 CLR
05:12 7.8 °F 4.2 °F 1020.9 in NW 17.7 mph 17.7 mph 78 % 0.0 in 0.0 W/m2 CLR
05:17 7.8 °F 4.2 °F 1020.9 in WNW 14.8 mph 14.8 mph 78 % 0.0 in 0.0 W/m2 CLR
05:22 7.8 °F 4.2 °F 1020.9 in NW 18.5 mph 18.5 mph 78 % 0.0 in 0.0 W/m2 CLR
05:27 7.2 °F 3.7 °F 1020.5 in WNW 14.8 mph 14.8 mph 78 % 0.0 in 0.0 W/m2 CLR
05:32 7.2 °F 3.7 °F 1020.9 in NW 16.7 mph 16.7 mph 78 % 0.0 in 0.0 W/m2 CLR
05:37 7.8 °F 4.2 °F 1020.5 in WNW 13.0 mph 13.0 mph 78 % 0.0 in 0.0 W/m2 CLR
05:42 7.8 °F 4.2 °F 1020.5 in NW 12.9 mph 12.9 mph 78 % 0.0 in 0.0 W/m2 CLR
05:47 7.2 °F 3.7 °F 1020.5 in NW 18.5 mph 18.5 mph 78 % 0.0 in 0.0 W/m2 CLR
05:52 7.8 °F 4.2 °F 1020.5 in WNW 16.7 mph 16.7 mph 78 % 0.0 in 0.0 W/m2 CLR
05:57 7.8 °F 4.2 °F 1020.9 in West 13.0 mph 13.0 mph 78 % 0.0 in 0.0 W/m2 CLR
06:02 7.8 °F 4.2 °F 1020.5 in WNW 14.8 mph 14.8 mph 78 % 0.0 in 0.0 W/m2 CLR
06:07 7.8 °F 4.2 °F 1020.5 in NW 13.0 mph 13.0 mph 78 % 0.0 in 0.0 W/m2 CLR
06:12 7.2 °F 3.7 °F 1020.9 in NW 18.5 mph 18.5 mph 78 % 0.0 in 0.0 W/m2 CLR
06:17 7.8 °F 4.2 °F 1020.5 in NW 16.7 mph 16.7 mph 78 % 0.0 in 0.0 W/m2 CLR
06:22 7.8 °F 4.2 °F 1020.5 in WNW 14.8 mph 14.8 mph 78 % 0.0 in 0.0 W/m2 CLR
06:27 7.8 °F 4.2 °F 1020.5 in WNW 16.1 mph 16.1 mph 78 % 0.0 in 0.0 W/m2 CLR
06:32 7.8 °F 4.2 °F 1020.5 in NW 13.0 mph 13.0 mph 78 % 0.0 in 0.0 W/m2 CLR
06:37 7.8 °F 4.2 °F 1020.9 in NW 19.3 mph 19.3 mph 78 % 0.0 in 0.0 W/m2 CLR
06:42 7.8 °F 4.2 °F 1020.5 in WNW 16.7 mph 16.7 mph 78 % 0.0 in 0.0 W/m2 CLR
06:47 7.8 °F 4.2 °F 1020.5 in NW 14.8 mph 14.8 mph 78 % 0.0 in 0.0 W/m2 CLR
06:52 7.8 °F 4.2 °F 1020.5 in WNW 18.5 mph 18.5 mph 78 % 0.0 in 0.0 W/m2 CLR
06:57 7.8 °F 4.2 °F 1020.5 in NW 16.7 mph 16.7 mph 78 % 0.0 in 0.0 W/m2 CLR
07:02 7.8 °F 4.2 °F 1020.5 in NW 16.7 mph 16.7 mph 78 % 0.0 in 0.0 W/m2 CLR
07:07 7.8 °F 4.2 °F 1020.5 in WNW 18.5 mph 18.5 mph 78 % 0.0 in 0.0 W/m2 CLR
07:12 7.8 °F 4.2 °F 1020.5 in West 18.5 mph 18.5 mph 78 % 0.0 in 0.0 W/m2 CLR
07:17 7.8 °F 4.2 °F 1020.5 in NW 18.5 mph 18.5 mph 78 % 0.0 in 0.0 W/m2 CLR
07:22 8.3 °F 4.7 °F 1020.9 in WNW 16.7 mph 16.7 mph 78 % 0.0 in 0.0 W/m2 CLR
07:27 8.3 °F 4.7 °F 1020.9 in WNW 11.3 mph 11.3 mph 78 % 0.0 in 0.0 W/m2 CLR
07:32 8.3 °F 4.7 °F 1020.9 in West 13.0 mph 13.0 mph 78 % 0.0 in 0.0 W/m2 CLR
07:37 8.3 °F 4.7 °F 1020.9 in NW 18.5 mph 18.5 mph 78 % 0.0 in 0.0 W/m2 CLR
07:42 8.3 °F 4.7 °F 1020.9 in NW 14.8 mph 14.8 mph 78 % 0.0 in 0.0 W/m2 OVC
07:47 8.3 °F 4.7 °F 1020.9 in WNW 14.8 mph 14.8 mph 78 % 0.0 in 0.0 W/m2 OVC
07:52 8.3 °F 4.7 °F 1020.9 in NW 13.0 mph 13.0 mph 78 % 0.0 in 0.0 W/m2 OVC
07:57 8.3 °F 4.7 °F 1021.2 in WNW 13.0 mph 13.0 mph 78 % 0.0 in 0.0 W/m2 OVC
08:02 8.3 °F 4.7 °F 1021.2 in NW 13.0 mph 13.0 mph 78 % 0.0 in 5.0 W/m2 OVC
08:07 8.3 °F 4.6 °F 1021.2 in WNW 14.8 mph 14.8 mph 77 % 0.0 in 7.0 W/m2 BKN
08:12 8.3 °F 4.6 °F 1020.9 in NW 11.1 mph 11.1 mph 77 % 0.0 in 7.0 W/m2 BKN
08:17 8.3 °F 4.6 °F 1021.2 in WNW 9.3 mph 9.3 mph 77 % 0.0 in 16.0 W/m2 BKN
08:22 8.3 °F 4.6 °F 1021.2 in WNW 9.3 mph 9.3 mph 77 % 0.0 in 18.0 W/m2 BKN
08:27 8.9 °F 5.1 °F 1021.2 in WNW 11.1 mph 11.1 mph 77 % 0.0 in 21.0 W/m2 BKN
08:32 8.9 °F 5.1 °F 1021.2 in NW 13.0 mph 13.0 mph 77 % 0.0 in 26.0 W/m2 BKN
08:37 8.9 °F 5.1 °F 1021.2 in WNW 14.5 mph 14.5 mph 77 % 0.0 in 25.0 W/m2 BKN
08:42 8.9 °F 5.1 °F 1021.2 in NW 14.8 mph 14.8 mph 77 % 0.0 in 37.0 W/m2 BKN
08:47 8.9 °F 4.9 °F 1021.2 in NW 13.0 mph 13.0 mph 76 % 0.0 in 49.0 W/m2 SCT
08:52 8.9 °F 4.9 °F 1021.2 in NW 16.7 mph 16.7 mph 76 % 0.0 in 62.0 W/m2 SCT
08:57 9.4 °F 5.4 °F 1021.2 in NW 14.8 mph 14.8 mph 76 % 0.0 in 69.0 W/m2 SCT
09:02 9.4 °F 5.4 °F 1020.9 in NW 9.7 mph 9.7 mph 76 % 0.0 in 72.0 W/m2 FEW
09:07 9.4 °F 5.4 °F 1021.2 in NW 18.5 mph 18.5 mph 76 % 0.0 in 69.0 W/m2 FEW
Lo Temps de Massalio
Compliments of Weather Underground - 512 kb